Time;durP1;ratioP1;P1;durP2;ratioP2;P2;SDS_P1;SDS_P2;PMS_P1;PMS_P2;Temp;Humidity;BMP_temperature;BMP_pressure;BME280_temperature;BME280_humidity;BME280_pressure;Samples;Min_cycle;Max_cycle;Signal;HPM_P1;HPM_P2
2022/10/23 00:00:04;;;;;;;;;;;;;;;;;;4995305;28;19941;-24
2022/10/23 00:02:30;;;;;;;;;;;;;;;;;;4995225;28;20246;-25
2022/10/23 00:04:56;;;;;;;;;;;;;;;;;;4995213;28;19921;-27
2022/10/23 00:07:22;;;;;;;;;;;;;;;;;;4995102;28;19921;-26
2022/10/23 00:09:48;;;;;;;;;;;;;;;;;;4995390;28;20312;-25
2022/10/23 00:12:14;;;;;;;;;;;;;;;;;;4994930;28;19922;-26
2022/10/23 00:14:40;;;;;;;;;;;;;;;;;;4995039;28;20269;-25
2022/10/23 00:17:06;;;;;;;;;;;;;;;;;;4995004;28;19914;-26
2022/10/23 00:19:32;;;;;;;;;;;;;;;;;;4995100;28;19926;-26
2022/10/23 00:21:57;;;;;;;;;;;;;;;;;;4994978;28;19914;-24
2022/10/23 00:24:23;;;;;;;;;;;;;;;;;;4995324;28;19910;-23
2022/10/23 00:26:50;;;;;;;;;;;;;;;;;;4995032;28;19920;-28
2022/10/23 00:29:16;;;;;;;;;;;;;;;;;;4995013;28;20234;-23
2022/10/23 00:31:41;;;;;;;;;;;;;;;;;;4995216;28;19925;-28
2022/10/23 00:34:08;;;;;;;;;;;;;;;;;;4994904;28;19914;-26
2022/10/23 00:36:34;;;;;;;;;;;;;;;;;;4994991;28;19910;-28
2022/10/23 00:38:59;;;;;;;;;;;;;;;;;;4994755;28;20353;-26
2022/10/23 00:41:27;;;;;;;;;;;;;;;;;;4995142;28;20004;-24
2022/10/23 00:43:53;;;;;;;;;;;;;;;;;;4994845;28;19914;-27
2022/10/23 00:46:19;;;;;;;;;;;;;;;;;;4995107;28;19925;-26
2022/10/23 00:48:45;;;;;;;;;;;;;;;;;;4994741;28;20241;-24
2022/10/23 00:51:11;;;;;;;;;;;;;;;;;;4994736;28;19914;-26
2022/10/23 00:53:37;;;;;;;;;;;;;;;;;;4996549;28;19967;-24
2022/10/23 00:56:03;;;;;;;;;;;;;;;;;;4998307;28;20272;-27
2022/10/23 00:58:29;;;;;;;;;;;;;;;;;;4998502;28;19910;-29
2022/10/23 01:00:55;;;;;;;;;;;;;;;;;;4998293;28;19972;-26
2022/10/23 01:03:21;;;;;;;;;;;;;;;;;;4998501;28;20214;-26
2022/10/23 01:05:47;;;;;;;;;;;;;;;;;;4998199;28;19910;-24
2022/10/23 01:08:13;;;;;;;;;;;;;;;;;;4998085;28;19914;-25
2022/10/23 01:10:39;;;;;;;;;;;;;;;;;;4997924;28;19935;-22
2022/10/23 01:13:05;;;;;;;;;;;;;;;;;;4997947;28;19925;-22
2022/10/23 01:15:31;;;;;;;;;;;;;;;;;;4998291;28;20356;-24
2022/10/23 01:17:57;;;;;;;;;;;;;;;;;;4997882;28;20312;-27
2022/10/23 01:20:23;;;;;;;;;;;;;;;;;;4997895;28;19914;-23
2022/10/23 01:22:49;;;;;;;;;;;;;;;;;;4998176;28;19913;-32
2022/10/23 01:25:15;;;;;;;;;;;;;;;;;;4997765;28;20083;-29
2022/10/23 01:27:41;;;;;;;;;;;;;;;;;;4997757;28;20373;-25
2022/10/23 01:30:07;;;;;;;;;;;;;;;;;;4997761;28;19980;-24
2022/10/23 01:32:33;;;;;;;;;;;;;;;;;;4997598;28;19917;-32
2022/10/23 01:34:59;;;;;;;;;;;;;;;;;;4997686;28;19910;-28
2022/10/23 01:37:25;;;;;;;;;;;;;;;;;;4997571;28;20297;-24
2022/10/23 01:39:51;;;;;;;;;;;;;;;;;;4997498;28;19914;-23
2022/10/23 01:42:17;;;;;;;;;;;;;;;;;;4997716;28;19910;-28
2022/10/23 01:44:43;;;;;;;;;;;;;;;;;;4997432;28;20001;-23
2022/10/23 01:47:09;;;;;;;;;;;;;;;;;;4997270;28;19913;-26
2022/10/23 01:49:35;;;;;;;;;;;;;;;;;;4997307;28;19976;-28
2022/10/23 01:52:00;;;;;;;;;;;;;;;;;;4997223;28;19949;-27
2022/10/23 01:54:26;;;;;;;;;;;;;;;;;;4997294;28;19976;-25
2022/10/23 01:56:52;;;;;;;;;;;;;;;;;;4997238;28;19925;-25
2022/10/23 01:59:18;;;;;;;;;;;;;;;;;;4997268;28;19914;-29
2022/10/23 02:01:44;;;;;;;;;;;;;;;;;;4997101;28;20341;-25
2022/10/23 02:04:10;;;;;;;;;;;;;;;;;;4996697;28;19910;-27
2022/10/23 02:06:36;;;;;;;;;;;;;;;;;;4996540;28;19920;-26
2022/10/23 02:09:02;;;;;;;;;;;;;;;;;;4997011;28;19933;-27
2022/10/23 02:11:28;;;;;;;;;;;;;;;;;;4996790;28;19972;-24
2022/10/23 02:13:54;;;;;;;;;;;;;;;;;;4996951;28;19924;-26
2022/10/23 02:16:20;;;;;;;;;;;;;;;;;;4997137;28;19917;-24
2022/10/23 02:18:46;;;;;;;;;;;;;;;;;;4996803;28;19918;-30
2022/10/23 02:21:12;;;;;;;;;;;;;;;;;;4997091;28;19914;-27
2022/10/23 02:23:38;;;;;;;;;;;;;;;;;;4996709;28;19913;-22
2022/10/23 02:26:04;;;;;;;;;;;;;;;;;;4996744;28;19984;-27
2022/10/23 02:28:30;;;;;;;;;;;;;;;;;;4996574;28;20004;-24
2022/10/23 02:30:56;;;;;;;;;;;;;;;;;;4996579;28;19917;-26
2022/10/23 02:33:22;;;;;;;;;;;;;;;;;;4995574;28;20333;-22
2022/10/23 02:35:48;;;;;;;;;;;;;;;;;;4996531;28;19932;-26
2022/10/23 02:38:14;;;;;;;;;;;;;;;;;;4996529;28;19920;-28
2022/10/23 02:40:40;;;;;;;;;;;;;;;;;;4996515;28;19910;-26
2022/10/23 02:43:06;;;;;;;;;;;;;;;;;;4996375;28;19964;-24
2022/10/23 02:45:32;;;;;;;;;;;;;;;;;;4996377;28;19997;-24
2022/10/23 02:48:00;;;;;;;;;;;;;;;;;;4995249;28;19921;-27
2022/10/23 02:50:26;;;;;;;;;;;;;;;;;;4996224;28;19920;-29
2022/10/23 02:52:52;;;;;;;;;;;;;;;;;;4996367;28;19917;-24
2022/10/23 02:55:18;;;;;;;;;;;;;;;;;;4995200;28;19910;-27
2022/10/23 02:57:44;;;;;;;;;;;;;;;;;;4996501;28;20005;-27
2022/10/23 03:00:10;;;;;;;;;;;;;;;;;;4996263;28;19914;-29
2022/10/23 03:02:36;;;;;;;;;;;;;;;;;;4996168;28;20289;-26
2022/10/23 03:05:02;;;;;;;;;;;;;;;;;;4996365;28;19917;-28
2022/10/23 03:07:28;;;;;;;;;;;;;;;;;;4995991;28;20264;-25
2022/10/23 03:09:54;;;;;;;;;;;;;;;;;;4996164;28;19916;-23
2022/10/23 03:12:20;;;;;;;;;;;;;;;;;;4995627;28;19953;-23
2022/10/23 03:14:46;;;;;;;;;;;;;;;;;;4995844;28;19921;-23
2022/10/23 03:17:12;;;;;;;;;;;;;;;;;;4996423;28;19924;-28
2022/10/23 03:19:38;;;;;;;;;;;;;;;;;;4995653;28;19964;-26
2022/10/23 03:22:04;;;;;;;;;;;;;;;;;;4995911;28;19916;-28
2022/10/23 03:24:30;;;;;;;;;;;;;;;;;;4995648;28;19965;-28
2022/10/23 03:26:56;;;;;;;;;;;;;;;;;;4995754;28;19970;-25
2022/10/23 03:29:22;;;;;;;;;;;;;;;;;;4995843;28;19982;-24
2022/10/23 03:31:48;;;;;;;;;;;;;;;;;;4995474;28;19918;-26
2022/10/23 03:34:14;;;;;;;;;;;;;;;;;;4995826;28;20338;-24
2022/10/23 03:36:40;;;;;;;;;;;;;;;;;;4995489;28;19913;-25
2022/10/23 03:39:06;;;;;;;;;;;;;;;;;;4995397;28;19910;-27
2022/10/23 03:41:32;;;;;;;;;;;;;;;;;;4995657;28;19928;-29
2022/10/23 03:43:58;;;;;;;;;;;;;;;;;;4995683;28;20008;-26
2022/10/23 03:46:24;;;;;;;;;;;;;;;;;;4995455;28;19914;-26
2022/10/23 03:48:50;;;;;;;;;;;;;;;;;;4995590;28;19936;-26
2022/10/23 03:51:16;;;;;;;;;;;;;;;;;;4995346;28;20276;-29
2022/10/23 03:53:42;;;;;;;;;;;;;;;;;;4995599;28;20004;-29
2022/10/23 03:56:08;;;;;;;;;;;;;;;;;;4994305;28;19920;-26
2022/10/23 03:58:34;;;;;;;;;;;;;;;;;;4995153;28;19922;-27
2022/10/23 04:01:00;;;;;;;;;;;;;;;;;;4995539;28;20345;-29
2022/10/23 04:03:26;;;;;;;;;;;;;;;;;;4995148;28;19922;-23
2022/10/23 04:05:52;;;;;;;;;;;;;;;;;;4995218;28;19910;-25
2022/10/23 04:08:18;;;;;;;;;;;;;;;;;;4995119;28;19986;-25
2022/10/23 04:10:44;;;;;;;;;;;;;;;;;;4993967;28;19914;-29
2022/10/23 04:13:10;;;;;;;;;;;;;;;;;;4995305;28;19921;-29
2022/10/23 04:15:36;;;;;;;;;;;;;;;;;;4995094;28;20318;-26
2022/10/23 04:18:02;;;;;;;;;;;;;;;;;;4995314;28;19968;-26
2022/10/23 04:20:28;;;;;;;;;;;;;;;;;;4995089;28;19910;-28
2022/10/23 04:22:54;;;;;;;;;;;;;;;;;;4995079;28;19923;-25
2022/10/23 04:25:20;;;;;;;;;;;;;;;;;;4995333;28;19937;-26
2022/10/23 04:27:46;;;;;;;;;;;;;;;;;;4995221;28;19917;-25
2022/10/23 04:30:12;;;;;;;;;;;;;;;;;;4998943;28;19917;-23
2022/10/23 04:32:38;;;;;;;;;;;;;;;;;;4999000;28;20307;-27
2022/10/23 04:35:04;;;;;;;;;;;;;;;;;;4998787;28;19918;-27
2022/10/23 04:37:30;;;;;;;;;;;;;;;;;;4998611;28;19914;-29
2022/10/23 04:39:56;;;;;;;;;;;;;;;;;;4998988;28;19921;-30
2022/10/23 04:42:22;;;;;;;;;;;;;;;;;;4998597;28;20009;-29
2022/10/23 04:44:48;;;;;;;;;;;;;;;;;;4998584;28;19945;-25
2022/10/23 04:47:13;;;;;;;;;;;;;;;;;;4998506;28;19914;-30
2022/10/23 04:49:39;;;;;;;;;;;;;;;;;;4998558;28;20312;-27
2022/10/23 04:52:05;;;;;;;;;;;;;;;;;;4998345;28;19949;-27
2022/10/23 04:54:31;;;;;;;;;;;;;;;;;;4998675;28;19972;-25
2022/10/23 04:56:57;;;;;;;;;;;;;;;;;;4998988;28;19968;-26
2022/10/23 04:59:23;;;;;;;;;;;;;;;;;;4998355;28;20234;-29
2022/10/23 05:01:49;;;;;;;;;;;;;;;;;;4998309;28;19952;-25
2022/10/23 05:04:15;;;;;;;;;;;;;;;;;;4998496;28;20012;-28
2022/10/23 05:06:41;;;;;;;;;;;;;;;;;;4998156;28;20009;-30
2022/10/23 05:09:07;;;;;;;;;;;;;;;;;;4998112;28;19918;-25
2022/10/23 05:11:33;;;;;;;;;;;;;;;;;;4998015;28;19922;-27
2022/10/23 05:13:59;;;;;;;;;;;;;;;;;;4998289;28;20060;-25
2022/10/23 05:16:25;;;;;;;;;;;;;;;;;;4997937;28;20365;-28
2022/10/23 05:18:51;;;;;;;;;;;;;;;;;;4997902;28;19909;-24
2022/10/23 05:21:17;;;;;;;;;;;;;;;;;;4998228;28;19913;-26
2022/10/23 05:23:43;;;;;;;;;;;;;;;;;;4997951;28;20318;-23
2022/10/23 05:26:09;;;;;;;;;;;;;;;;;;4998157;28;19949;-25
2022/10/23 05:28:35;;;;;;;;;;;;;;;;;;4997721;28;19949;-23
2022/10/23 05:31:01;;;;;;;;;;;;;;;;;;4997984;28;19921;-27
2022/10/23 05:33:27;;;;;;;;;;;;;;;;;;4997964;28;19924;-26
2022/10/23 05:35:53;;;;;;;;;;;;;;;;;;4997746;28;19968;-28
2022/10/23 05:38:19;;;;;;;;;;;;;;;;;;4997602;28;19975;-24
2022/10/23 05:40:45;;;;;;;;;;;;;;;;;;4997547;28;19913;-30
2022/10/23 05:43:11;;;;;;;;;;;;;;;;;;4997559;28;20008;-25
2022/10/23 05:45:37;;;;;;;;;;;;;;;;;;4997482;28;20369;-30
2022/10/23 05:48:03;;;;;;;;;;;;;;;;;;4997475;28;19937;-29
2022/10/23 05:50:29;;;;;;;;;;;;;;;;;;4997368;28;19910;-23
2022/10/23 05:52:55;;;;;;;;;;;;;;;;;;4997298;28;20008;-26
2022/10/23 05:55:21;;;;;;;;;;;;;;;;;;4997301;28;20360;-23
2022/10/23 05:57:47;;;;;;;;;;;;;;;;;;4997473;28;19961;-26
2022/10/23 06:00:13;;;;;;;;;;;;;;;;;;4997233;28;20264;-27
2022/10/23 06:02:39;;;;;;;;;;;;;;;;;;4997146;28;19916;-26
2022/10/23 06:05:05;;;;;;;;;;;;;;;;;;4997411;28;19920;-27
2022/10/23 06:07:31;;;;;;;;;;;;;;;;;;4997024;28;20255;-25
2022/10/23 06:09:57;;;;;;;;;;;;;;;;;;4997344;28;19945;-26
2022/10/23 06:12:23;;;;;;;;;;;;;;;;;;4996826;28;19929;-23
2022/10/23 06:14:49;;;;;;;;;;;;;;;;;;4996954;28;19909;-26
2022/10/23 06:17:14;;;;;;;;;;;;;;;;;;4996799;28;19964;-23
2022/10/23 06:19:40;;;;;;;;;;;;;;;;;;4997100;28;19953;-27
2022/10/23 06:22:06;;;;;;;;;;;;;;;;;;4995868;28;19921;-28
2022/10/23 06:24:32;;;;;;;;;;;;;;;;;;4995805;28;19964;-28
2022/10/23 06:26:58;;;;;;;;;;;;;;;;;;4996684;28;19992;-25
2022/10/23 06:29:24;;;;;;;;;;;;;;;;;;4996956;28;19993;-25
2022/10/23 06:31:50;;;;;;;;;;;;;;;;;;4996764;28;20004;-26
2022/10/23 06:34:16;;;;;;;;;;;;;;;;;;4996534;28;19910;-29
2022/10/23 06:36:43;;;;;;;;;;;;;;;;;;4996743;28;19976;-28
2022/10/23 06:39:09;;;;;;;;;;;;;;;;;;4995411;28;19914;-28
2022/10/23 06:41:37;;;;;;;;;;;;;;;;;;4996702;28;19976;-27
2022/10/23 06:44:03;;;;;;;;;;;;;;;;;;4995435;28;20312;-23
2022/10/23 06:46:31;;;;;;;;;;;;;;;;;;4996572;28;19910;-28
2022/10/23 06:48:57;;;;;;;;;;;;;;;;;;4996504;28;19945;-24
2022/10/23 06:51:28;;;;;;;;;;;;;;;;;;4995649;28;20294;-29
2022/10/23 06:53:54;;;;;;;;;;;;;;;;;;4997027;28;19976;-25
2022/10/23 06:56:21;;;;;;;;;;;;;;;;;;4996208;28;19914;-30
2022/10/23 06:58:47;;;;;;;;;;;;;;;;;;4996316;28;19913;-25
2022/10/23 07:01:13;;;;;;;;;;;;;;;;;;4996180;28;19933;-26
2022/10/23 07:03:39;;;;;;;;;;;;;;;;;;4996361;28;19925;-27
2022/10/23 07:06:05;;;;;;;;;;;;;;;;;;4996303;28;20249;-25
2022/10/23 07:08:30;;;;;;;;;;;;;;;;;;4994895;28;19925;-25
2022/10/23 07:10:57;;;;;;;;;;;;;;;;;;4995756;28;19976;-24
2022/10/23 07:13:23;;;;;;;;;;;;;;;;;;4996092;28;19932;-23
2022/10/23 07:15:49;;;;;;;;;;;;;;;;;;4996136;28;20309;-24
2022/10/23 07:18:16;;;;;;;;;;;;;;;;;;4996035;28;19992;-25
2022/10/23 07:20:42;;;;;;;;;;;;;;;;;;4996006;28;20297;-23
2022/10/23 07:23:08;;;;;;;;;;;;;;;;;;4995985;28;19920;-24
2022/10/23 07:25:34;;;;;;;;;;;;;;;;;;4995626;28;19914;-29
2022/10/23 07:28:00;;;;;;;;;;;;;;;;;;4995490;28;19914;-24
2022/10/23 07:30:26;;;;;;;;;;;;;;;;;;4995815;28;19975;-31
2022/10/23 07:32:52;;;;;;;;;;;;;;;;;;4995521;28;19921;-23
2022/10/23 07:35:18;;;;;;;;;;;;;;;;;;4995769;28;19996;-25
2022/10/23 07:37:44;;;;;;;;;;;;;;;;;;4995697;28;20429;-26
2022/10/23 07:40:09;;;;;;;;;;;;;;;;;;4995487;28;19977;-29
2022/10/23 07:42:35;;;;;;;;;;;;;;;;;;4995743;28;19918;-24
2022/10/23 07:45:03;;;;;;;;;;;;;;;;;;4996182;28;19955;-28
2022/10/23 07:47:29;;;;;;;;;;;;;;;;;;4995578;28;19936;-26
2022/10/23 07:49:55;;;;;;;;;;;;;;;;;;4995440;28;20382;-24
2022/10/23 07:52:21;;;;;;;;;;;;;;;;;;4995485;28;19957;-23
2022/10/23 07:54:47;;;;;;;;;;;;;;;;;;4995625;28;20313;-26
2022/10/23 07:57:13;;;;;;;;;;;;;;;;;;4995414;28;20384;-25
2022/10/23 07:59:39;;;;;;;;;;;;;;;;;;4995338;28;19968;-27
2022/10/23 08:02:05;;;;;;;;;;;;;;;;;;4995227;28;19913;-27
2022/10/23 08:04:31;;;;;;;;;;;;;;;;;;4998406;28;19936;-24
2022/10/23 08:06:57;;;;;;;;;;;;;;;;;;4999237;28;19979;-25
2022/10/23 08:09:23;;;;;;;;;;;;;;;;;;4999285;28;20356;-24
2022/10/23 08:11:48;;;;;;;;;;;;;;;;;;4998957;28;20316;-23
2022/10/23 08:14:14;;;;;;;;;;;;;;;;;;4999065;28;19910;-23
2022/10/23 08:16:40;;;;;;;;;;;;;;;;;;4999116;28;19920;-26
2022/10/23 08:19:07;;;;;;;;;;;;;;;;;;4999067;28;19972;-27
2022/10/23 08:21:33;;;;;;;;;;;;;;;;;;4999277;28;20352;-27
2022/10/23 08:23:59;;;;;;;;;;;;;;;;;;4999228;28;19910;-27
2022/10/23 08:26:25;;;;;;;;;;;;;;;;;;4999192;28;19953;-23
2022/10/23 08:28:51;;;;;;;;;;;;;;;;;;4998831;28;19920;-25
2022/10/23 08:31:17;;;;;;;;;;;;;;;;;;4998859;28;19914;-27
2022/10/23 08:33:43;;;;;;;;;;;;;;;;;;4998788;28;19918;-23
2022/10/23 08:36:09;;;;;;;;;;;;;;;;;;4999024;28;19914;-23
2022/10/23 08:38:35;;;;;;;;;;;;;;;;;;4998932;28;20321;-27
2022/10/23 08:41:01;;;;;;;;;;;;;;;;;;4998697;28;20253;-29
2022/10/23 08:43:27;;;;;;;;;;;;;;;;;;4998723;28;20020;-28
2022/10/23 08:45:53;;;;;;;;;;;;;;;;;;4998937;28;20341;-27
2022/10/23 08:48:19;;;;;;;;;;;;;;;;;;4998451;28;19981;-23
2022/10/23 08:50:45;;;;;;;;;;;;;;;;;;4998778;28;19921;-30
2022/10/23 08:53:11;;;;;;;;;;;;;;;;;;4998357;28;19929;-27
2022/10/23 08:55:37;;;;;;;;;;;;;;;;;;4998483;28;19910;-27
2022/10/23 08:58:03;;;;;;;;;;;;;;;;;;4998328;28;19968;-24
2022/10/23 09:00:29;;;;;;;;;;;;;;;;;;4998582;28;19914;-26
2022/10/23 09:02:55;;;;;;;;;;;;;;;;;;4998511;28;20309;-29
2022/10/23 09:05:21;;;;;;;;;;;;;;;;;;4998279;28;19913;-27
2022/10/23 09:07:47;;;;;;;;;;;;;;;;;;4998099;28;19964;-25
2022/10/23 09:10:13;;;;;;;;;;;;;;;;;;4998187;28;19968;-30
2022/10/23 09:12:39;;;;;;;;;;;;;;;;;;4997890;28;19922;-26
2022/10/23 09:15:05;;;;;;;;;;;;;;;;;;4997639;28;20024;-29
2022/10/23 09:17:31;;;;;;;;;;;;;;;;;;4998196;28;19918;-26
2022/10/23 09:19:57;;;;;;;;;;;;;;;;;;4998269;28;19921;-26
2022/10/23 09:22:23;;;;;;;;;;;;;;;;;;4997919;28;19913;-26
2022/10/23 09:24:49;;;;;;;;;;;;;;;;;;4998231;28;19910;-25
2022/10/23 09:27:18;;;;;;;;;;;;;;;;;;4997815;28;19917;-29
2022/10/23 09:29:44;;;;;;;;;;;;;;;;;;4998113;28;19918;-24
2022/10/23 09:32:10;;;;;;;;;;;;;;;;;;4997972;28;19993;-25
2022/10/23 09:34:36;;;;;;;;;;;;;;;;;;4997758;28;20008;-25
2022/10/23 09:37:02;;;;;;;;;;;;;;;;;;4997928;28;19968;-25
2022/10/23 09:39:28;;;;;;;;;;;;;;;;;;4997723;28;20008;-25
2022/10/23 09:41:54;;;;;;;;;;;;;;;;;;4997826;28;19914;-26
2022/10/23 09:44:20;;;;;;;;;;;;;;;;;;4997539;28;19910;-24
2022/10/23 09:46:46;;;;;;;;;;;;;;;;;;4997442;28;20015;-23
2022/10/23 09:49:12;;;;;;;;;;;;;;;;;;4997610;28;19918;-24
2022/10/23 09:51:40;;;;;;;;;;;;;;;;;;4997290;28;19925;-27
2022/10/23 09:54:06;;;;;;;;;;;;;;;;;;4997690;28;19922;-26
2022/10/23 09:56:32;;;;;;;;;;;;;;;;;;4997283;28;19914;-24
2022/10/23 09:58:58;;;;;;;;;;;;;;;;;;4997499;28;19914;-25
2022/10/23 10:01:24;;;;;;;;;;;;;;;;;;4997223;28;19914;-29
2022/10/23 10:03:50;;;;;;;;;;;;;;;;;;4997467;28;19910;-28
2022/10/23 10:06:16;;;;;;;;;;;;;;;;;;4996104;28;20361;-27
2022/10/23 10:08:43;;;;;;;;;;;;;;;;;;4997076;28;19913;-24
2022/10/23 10:11:09;;;;;;;;;;;;;;;;;;4996958;28;19948;-29
2022/10/23 10:13:40;;;;;;;;;;;;;;;;;;4996987;28;19953;-24
2022/10/23 10:16:06;;;;;;;;;;;;;;;;;;4997267;28;19913;-24
2022/10/23 10:18:32;;;;;;;;;;;;;;;;;;4996860;28;19910;-23
2022/10/23 10:20:58;;;;;;;;;;;;;;;;;;4996849;28;19980;-26
2022/10/23 10:23:24;;;;;;;;;;;;;;;;;;4996769;28;19914;-26
2022/10/23 10:25:50;;;;;;;;;;;;;;;;;;4994968;28;20337;-28
2022/10/23 10:28:16;;;;;;;;;;;;;;;;;;4996605;28;20273;-25
2022/10/23 10:30:42;;;;;;;;;;;;;;;;;;4996667;28;19949;-29
2022/10/23 10:33:08;;;;;;;;;;;;;;;;;;4996779;28;19926;-24
2022/10/23 10:35:36;;;;;;;;;;;;;;;;;;4996846;28;19993;-24
2022/10/23 10:38:02;;;;;;;;;;;;;;;;;;4996419;28;19918;-23
2022/10/23 10:40:28;;;;;;;;;;;;;;;;;;4996772;28;19924;-24
2022/10/23 10:42:57;;;;;;;;;;;;;;;;;;4996390;28;19921;-27
2022/10/23 10:45:23;;;;;;;;;;;;;;;;;;4996363;28;19921;-26
2022/10/23 10:47:50;;;;;;;;;;;;;;;;;;4996256;28;19921;-25
2022/10/23 10:50:16;;;;;;;;;;;;;;;;;;4996284;28;19913;-26
2022/10/23 10:52:42;;;;;;;;;;;;;;;;;;4996155;28;20016;-26
2022/10/23 10:55:08;;;;;;;;;;;;;;;;;;4996490;28;20011;-26
2022/10/23 10:57:34;;;;;;;;;;;;;;;;;;4996054;28;20345;-23
2022/10/23 11:00:00;;;;;;;;;;;;;;;;;;4996408;28;19914;-24
2022/10/23 11:02:26;;;;;;;;;;;;;;;;;;4996327;28;19914;-26
2022/10/23 11:04:52;;;;;;;;;;;;;;;;;;4996094;28;20018;-23
2022/10/23 11:07:18;;;;;;;;;;;;;;;;;;4995927;28;19914;-25
2022/10/23 11:09:44;;;;;;;;;;;;;;;;;;4995959;28;19910;-25
2022/10/23 11:12:10;;;;;;;;;;;;;;;;;;4995779;28;19921;-27
2022/10/23 11:14:36;;;;;;;;;;;;;;;;;;4996586;28;19972;-25
2022/10/23 11:17:03;;;;;;;;;;;;;;;;;;4978208;28;20203;-26
2022/10/23 11:19:29;;;;;;;;;;;;;;;;;;4996048;28;19921;-25
2022/10/23 11:21:55;;;;;;;;;;;;;;;;;;4995768;28;20273;-26
2022/10/23 11:24:21;;;;;;;;;;;;;;;;;;4995681;28;19914;-32
2022/10/23 11:26:50;;;;;;;;;;;;;;;;;;4995697;28;19936;-27
2022/10/23 11:29:17;;;;;;;;;;;;;;;;;;4995824;28;20370;-28
2022/10/23 11:31:43;;;;;;;;;;;;;;;;;;4995796;28;20006;-29
2022/10/23 11:34:09;;;;;;;;;;;;;;;;;;4995859;28;19987;-26
2022/10/23 11:36:35;;;;;;;;;;;;;;;;;;4995380;28;20012;-29
2022/10/23 11:39:01;;;;;;;;;;;;;;;;;;4995392;28;20000;-25
2022/10/23 11:41:32;;;;;;;;;;;;;;;;;;4995459;28;19914;-30
2022/10/23 11:44:05;;;;;;;;;;;;;;;;;;4995737;28;19920;-27
2022/10/23 11:46:31;;;;;;;;;;;;;;;;;;4995722;28;19921;-30
2022/10/23 11:48:57;;;;;;;;;;;;;;;;;;4995541;28;19965;-26
2022/10/23 11:51:23;;;;;;;;;;;;;;;;;;4995205;28;19913;-29
2022/10/23 11:53:49;;;;;;;;;;;;;;;;;;4995350;28;19981;-24
2022/10/23 11:56:15;;;;;;;;;;;;;;;;;;4995304;28;19913;-24
2022/10/23 11:58:41;;;;;;;;;;;;;;;;;;4995204;28;19921;-27
2022/10/23 12:01:07;;;;;;;;;;;;;;;;;;4995537;28;20344;-26
2022/10/23 12:03:33;;;;;;;;;;;;;;;;;;4995223;28;19914;-30
2022/10/23 12:05:59;;;;;;;;;;;;;;;;;;4995131;28;19932;-23
2022/10/23 12:08:25;;;;;;;;;;;;;;;;;;4995126;28;19920;-24
2022/10/23 12:10:54;;;;;;;;;;;;;;;;;;4995001;28;19913;-26
2022/10/23 12:13:20;;;;;;;;;;;;;;;;;;4995068;28;19921;-24
2022/10/23 12:15:46;;;;;;;;;;;;;;;;;;4995133;28;19949;-25
2022/10/23 12:18:12;;;;;;;;;;;;;;;;;;4994036;28;19964;-24
2022/10/23 12:20:38;;;;;;;;;;;;;;;;;;4995389;28;19925;-24
2022/10/23 12:23:04;;;;;;;;;;;;;;;;;;4995079;28;19921;-26
2022/10/23 12:25:30;;;;;;;;;;;;;;;;;;4995321;28;20412;-26
2022/10/23 12:27:56;;;;;;;;;;;;;;;;;;4995184;28;19917;-27
2022/10/23 12:30:22;;;;;;;;;;;;;;;;;;4995287;28;20325;-28
2022/10/23 12:32:51;;;;;;;;;;;;;;;;;;4994916;28;19965;-23
2022/10/23 12:35:17;;;;;;;;;;;;;;;;;;4994935;28;19914;-27
2022/10/23 12:37:43;;;;;;;;;;;;;;;;;;4993947;28;19913;-28
2022/10/23 12:40:09;;;;;;;;;;;;;;;;;;4995159;28;19914;-26
2022/10/23 12:42:35;;;;;;;;;;;;;;;;;;4994849;28;20371;-32
2022/10/23 12:45:01;;;;;;;;;;;;;;;;;;4995184;28;19997;-29
2022/10/23 12:47:27;;;;;;;;;;;;;;;;;;4994823;28;19924;-25
2022/10/23 12:49:53;;;;;;;;;;;;;;;;;;4997121;28;19979;-26
2022/10/23 12:52:19;;;;;;;;;;;;;;;;;;4998440;28;20364;-23
2022/10/23 12:54:45;;;;;;;;;;;;;;;;;;4998821;28;19926;-28
2022/10/23 12:57:11;;;;;;;;;;;;;;;;;;4998314;28;19925;-27
2022/10/23 12:59:37;;;;;;;;;;;;;;;;;;4998637;28;20325;-32
2022/10/23 13:02:03;;;;;;;;;;;;;;;;;;4998374;28;19924;-27
2022/10/23 13:04:29;;;;;;;;;;;;;;;;;;4998350;28;19913;-25
2022/10/23 13:06:55;;;;;;;;;;;;;;;;;;4998424;28;19968;-23
2022/10/23 13:09:21;;;;;;;;;;;;;;;;;;4998475;28;19917;-26
2022/10/23 13:11:47;;;;;;;;;;;;;;;;;;4997853;28;19922;-24
2022/10/23 13:14:13;;;;;;;;;;;;;;;;;;4998097;28;19917;-25
2022/10/23 13:16:39;;;;;;;;;;;;;;;;;;4998754;28;19913;-25
2022/10/23 13:19:06;;;;;;;;;;;;;;;;;;4998187;28;19924;-23
2022/10/23 13:21:32;;;;;;;;;;;;;;;;;;4998244;28;20008;-29
2022/10/23 13:23:57;;;;;;;;;;;;;;;;;;4997948;28;19980;-23
2022/10/23 13:26:23;;;;;;;;;;;;;;;;;;4998244;28;19924;-26
2022/10/23 13:28:49;;;;;;;;;;;;;;;;;;4997859;28;20272;-26
2022/10/23 13:31:15;;;;;;;;;;;;;;;;;;4998165;28;19960;-28
2022/10/23 13:33:41;;;;;;;;;;;;;;;;;;4996763;28;19941;-25
2022/10/23 13:36:07;;;;;;;;;;;;;;;;;;4997728;28;20344;-26
2022/10/23 13:38:33;;;;;;;;;;;;;;;;;;4998144;28;19914;-24
2022/10/23 13:40:59;;;;;;;;;;;;;;;;;;4997942;28;19964;-24
2022/10/23 13:43:26;;;;;;;;;;;;;;;;;;4997620;28;19972;-27
2022/10/23 13:45:52;;;;;;;;;;;;;;;;;;4996532;28;19969;-26
2022/10/23 13:48:18;;;;;;;;;;;;;;;;;;4997376;28;19933;-28
2022/10/23 13:50:44;;;;;;;;;;;;;;;;;;4997367;28;20004;-25
2022/10/23 13:53:09;;;;;;;;;;;;;;;;;;4996321;28;19981;-23
2022/10/23 13:55:37;;;;;;;;;;;;;;;;;;4997355;28;19925;-31
2022/10/23 13:58:02;;;;;;;;;;;;;;;;;;4997314;28;20265;-26
2022/10/23 14:00:28;;;;;;;;;;;;;;;;;;4996264;28;19909;-23
2022/10/23 14:02:54;;;;;;;;;;;;;;;;;;4997184;28;20276;-25
2022/10/23 14:05:20;;;;;;;;;;;;;;;;;;4997172;28;19914;-23
2022/10/23 14:07:46;;;;;;;;;;;;;;;;;;4997079;28;19921;-26
2022/10/23 14:10:12;;;;;;;;;;;;;;;;;;4997093;28;19921;-26
2022/10/23 14:12:39;;;;;;;;;;;;;;;;;;4996765;28;19922;-23
2022/10/23 14:15:05;;;;;;;;;;;;;;;;;;4997249;28;19914;-24
2022/10/23 14:17:31;;;;;;;;;;;;;;;;;;4997143;28;20009;-24
2022/10/23 14:19:57;;;;;;;;;;;;;;;;;;4995962;28;19917;-24
2022/10/23 14:22:23;;;;;;;;;;;;;;;;;;4996890;28;19925;-25
2022/10/23 14:24:49;;;;;;;;;;;;;;;;;;4996833;28;20242;-28
2022/10/23 14:27:15;;;;;;;;;;;;;;;;;;4997235;28;19914;-27
2022/10/23 14:29:41;;;;;;;;;;;;;;;;;;4996741;28;19910;-28
2022/10/23 14:32:07;;;;;;;;;;;;;;;;;;4996619;28;20005;-24
2022/10/23 14:34:33;;;;;;;;;;;;;;;;;;4996847;28;19920;-25
2022/10/23 14:36:59;;;;;;;;;;;;;;;;;;4996508;28;19910;-23
2022/10/23 14:39:25;;;;;;;;;;;;;;;;;;4996575;28;19914;-25
2022/10/23 14:41:51;;;;;;;;;;;;;;;;;;4996754;28;19922;-23
2022/10/23 14:44:17;;;;;;;;;;;;;;;;;;4996434;28;19976;-27
2022/10/23 14:46:43;;;;;;;;;;;;;;;;;;4996412;28;20060;-29
2022/10/23 14:49:09;;;;;;;;;;;;;;;;;;4996347;28;19910;-24
2022/10/23 14:51:35;;;;;;;;;;;;;;;;;;4996185;28;19914;-29
2022/10/23 14:54:01;;;;;;;;;;;;;;;;;;4996286;28;19916;-28
2022/10/23 14:56:27;;;;;;;;;;;;;;;;;;4996442;28;19914;-24
2022/10/23 14:58:53;;;;;;;;;;;;;;;;;;4996077;28;19920;-25
2022/10/23 15:01:19;;;;;;;;;;;;;;;;;;4996131;28;19918;-26
2022/10/23 15:03:45;;;;;;;;;;;;;;;;;;4996096;28;19917;-26
2022/10/23 15:06:11;;;;;;;;;;;;;;;;;;4996274;28;19921;-27
2022/10/23 15:08:38;;;;;;;;;;;;;;;;;;4996192;28;19918;-24
2022/10/23 15:11:04;;;;;;;;;;;;;;;;;;4996034;28;20288;-26
2022/10/23 15:13:30;;;;;;;;;;;;;;;;;;4995811;28;19921;-25
2022/10/23 15:15:56;;;;;;;;;;;;;;;;;;4995011;28;20284;-26
2022/10/23 15:18:22;;;;;;;;;;;;;;;;;;4995940;28;20008;-29
2022/10/23 15:20:48;;;;;;;;;;;;;;;;;;4995845;28;19984;-24
2022/10/23 15:23:14;;;;;;;;;;;;;;;;;;4996054;28;19913;-27
2022/10/23 15:25:40;;;;;;;;;;;;;;;;;;4994734;28;20349;-24
2022/10/23 15:28:06;;;;;;;;;;;;;;;;;;4995671;28;19925;-24
2022/10/23 15:30:32;;;;;;;;;;;;;;;;;;4995658;28;19909;-26
2022/10/23 15:32:58;;;;;;;;;;;;;;;;;;4995752;28;19972;-23
2022/10/23 15:35:24;;;;;;;;;;;;;;;;;;4995599;28;20261;-24
2022/10/23 15:37:50;;;;;;;;;;;;;;;;;;4995440;28;19914;-28
2022/10/23 15:40:16;;;;;;;;;;;;;;;;;;4995763;28;19910;-27
2022/10/23 15:42:42;;;;;;;;;;;;;;;;;;4995721;28;20233;-24
2022/10/23 15:45:08;;;;;;;;;;;;;;;;;;4995482;28;19925;-28
2022/10/23 15:47:34;;;;;;;;;;;;;;;;;;4995590;28;20012;-30
2022/10/23 15:50:00;;;;;;;;;;;;;;;;;;4995623;28;19941;-28
2022/10/23 15:52:26;;;;;;;;;;;;;;;;;;4995546;28;19917;-30
2022/10/23 15:54:52;;;;;;;;;;;;;;;;;;4995406;28;20320;-28
2022/10/23 15:57:18;;;;;;;;;;;;;;;;;;4995495;28;19949;-26
2022/10/23 15:59:44;;;;;;;;;;;;;;;;;;4995345;28;20319;-25
2022/10/23 16:02:10;;;;;;;;;;;;;;;;;;4995567;28;19914;-30
2022/10/23 16:04:36;;;;;;;;;;;;;;;;;;4995534;28;19917;-26
2022/10/23 16:07:02;;;;;;;;;;;;;;;;;;4995486;28;19941;-26
2022/10/23 16:09:28;;;;;;;;;;;;;;;;;;4995643;28;19952;-25
2022/10/23 16:11:54;;;;;;;;;;;;;;;;;;4994948;28;19934;-26
2022/10/23 16:14:20;;;;;;;;;;;;;;;;;;4995156;28;19910;-30
2022/10/23 16:16:46;;;;;;;;;;;;;;;;;;4995049;28;20000;-28
2022/10/23 16:19:12;;;;;;;;;;;;;;;;;;4995018;28;19949;-25
2022/10/23 16:21:38;;;;;;;;;;;;;;;;;;4995332;28;19914;-25
2022/10/23 16:24:04;;;;;;;;;;;;;;;;;;4995878;28;19933;-28
2022/10/23 16:26:30;;;;;;;;;;;;;;;;;;4998933;28;19918;-24
2022/10/23 16:28:56;;;;;;;;;;;;;;;;;;4998913;28;20357;-25
2022/10/23 16:31:22;;;;;;;;;;;;;;;;;;4999128;28;20252;-27
2022/10/23 16:33:48;;;;;;;;;;;;;;;;;;4999121;28;19918;-24
2022/10/23 16:36:14;;;;;;;;;;;;;;;;;;4998867;28;20276;-26